Time;durP1;ratioP1;P1;durP2;ratioP2;P2;SDS_P1;SDS_P2;PMS_P1;PMS_P2;Temp;Humidity;BMP_temperature;BMP_pressure;BME280_temperature;BME280_humidity;BME280_pressure;Samples;Min_cycle;Max_cycle;Signal;HPM_P1;HPM_P2
2022/09/30 00:01:53;;;;;;;34.85;19.30;;;7.90;99.90;;;6.48;100.00;100395.66;4969157;28;20130;-79
2022/09/30 00:04:24;;;;;;;32.35;20.02;;;7.90;99.90;;;6.43;100.00;100391.50;4964307;28;20050;-80
2022/09/30 00:06:52;;;;;;;32.83;20.60;;;7.80;99.90;;;6.35;100.00;100387.38;4961237;28;20506;-80
2022/09/30 00:09:19;;;;;;;35.70;19.35;;;7.70;99.90;;;6.35;100.00;100383.91;4976869;28;20042;-81
2022/09/30 00:11:45;;;;;;;35.42;19.38;;;7.70;99.90;;;6.27;100.00;100394.63;4959882;28;20252;-80
2022/09/30 00:14:19;;;;;;;32.55;19.35;;;7.70;99.90;;;6.26;100.00;100389.44;4968555;28;20046;-79
2022/09/30 00:16:48;;;;;;;32.25;20.13;;;7.60;99.90;;;6.25;100.00;100399.06;4970196;28;20045;-80
2022/09/30 00:19:14;;;;;;;33.42;19.38;;;7.60;99.90;;;6.19;100.00;100399.25;4984732;28;20038;-80
2022/09/30 00:21:43;;;;;;;34.03;19.85;;;7.60;99.90;;;6.14;100.00;100393.34;4982705;23;20487;-86
2022/09/30 00:24:22;;;;;;;33.53;19.73;;;7.60;99.90;;;6.12;100.00;100397.78;4918536;29;20032;-85
2022/09/30 00:27:03;;;;;;;36.90;21.13;;;7.60;99.90;;;6.12;100.00;100405.59;4923544;29;20020;-85
2022/09/30 00:29:54;;;;;;;38.63;20.30;;;7.50;99.90;;;6.09;100.00;100405.69;4911853;29;20043;-84
2022/09/30 00:32:22;;;;;;;36.50;20.48;;;7.50;99.90;;;6.11;100.00;100403.88;4902533;28;20595;-86
2022/09/30 00:35:33;;;;;;;37.95;20.58;;;7.50;99.90;;;6.05;100.00;100406.72;4924839;29;20043;-85
2022/09/30 00:37:43;;;;;;;39.03;20.35;;;;;;;6.00;100.00;100406.00;4925283;28;20063;-84
2022/09/30 00:40:21;;;;;;;44.00;20.17;;;;;;;6.01;100.00;100407.72;4934554;28;20663;-84
2022/09/30 00:42:48;;;;;;;35.28;21.02;;;;;;;5.99;100.00;100409.53;4934228;28;20040;-85
2022/09/30 00:45:24;;;;;;;38.13;21.25;;;7.40;99.90;;;5.96;100.00;100413.06;4934781;28;20035;-84
2022/09/30 00:51:01;;;;;;;33.83;20.97;;;7.30;99.90;;;5.88;100.00;100408.09;4918351;29;20077;-85
2022/09/30 00:53:55;;;;;;;40.85;21.52;;;;;;;5.89;100.00;100411.53;4933530;29;20039;-85
2022/09/30 00:56:48;;;;;;;36.13;19.88;;;7.30;99.90;;;5.86;100.00;100409.91;4940248;28;20036;-86
2022/09/30 00:59:19;;;;;;;36.58;20.75;;;;;;;5.83;100.00;100416.97;4908585;28;20040;-84
2022/09/30 01:01:45;;;;;;;37.70;21.10;;;7.30;99.90;;;5.85;100.00;100415.16;4921522;29;20036;-84
2022/09/30 01:04:23;;;;;;;37.90;21.35;;;7.30;99.90;;;5.82;100.00;100410.03;4927592;29;20081;-86
2022/09/30 01:07:00;;;;;;;37.88;21.85;;;7.20;99.90;;;5.81;100.00;100408.31;4924150;28;20054;-85
2022/09/30 01:09:27;;;;;;;35.88;20.92;;;;;;;5.78;100.00;100413.66;4924934;29;20047;-84
2022/09/30 01:12:04;;;;;;;31.90;19.90;;;;;;;5.77;100.00;100404.97;4937735;28;20492;-84
2022/09/30 01:14:30;;;;;;;39.50;21.60;;;7.20;99.90;;;5.78;100.00;100413.66;4926655;28;20043;-84
2022/09/30 01:18:23;;;;;;;33.67;19.98;;;7.20;99.90;;;5.76;100.00;100413.69;4923399;28;20031;-84
2022/09/30 01:21:37;;;;;;;33.10;20.42;;;7.10;99.90;;;5.70;100.00;100416.50;4901183;29;20787;-84
2022/09/30 01:24:49;;;;;;;38.38;20.80;;;7.10;99.90;;;5.66;100.00;100413.16;4921486;29;20123;-85
2022/09/30 01:28:04;;;;;;;38.78;20.08;;;7.10;99.90;;;5.61;100.00;100406.34;4925523;29;20511;-85
2022/09/30 01:31:28;;;;;;;35.65;20.83;;;7.10;99.90;;;5.59;100.00;100408.16;4915972;29;20032;-85
2022/09/30 01:34:59;;;;;;;32.55;20.10;;;7.10;99.90;;;5.57;100.00;100413.41;4931586;28;20036;-83
2022/09/30 01:37:57;;;;;;;34.03;19.42;;;7.00;99.90;;;5.55;100.00;100410.88;4922634;29;20034;-84
2022/09/30 01:40:32;;;;;;;29.77;19.20;;;7.00;99.90;;;5.55;100.00;100413.47;4919424;29;20063;-84
2022/09/30 01:43:28;;;;;;;40.65;19.65;;;7.00;99.90;;;5.56;100.00;100411.72;4917837;29;20028;-85
2022/09/30 01:46:31;;;;;;;34.95;20.98;;;7.00;99.90;;;5.57;100.00;100409.94;4915202;29;20454;-85
2022/09/30 01:49:10;;;;;;;35.13;20.38;;;7.00;99.90;;;5.53;100.00;100411.81;4933996;28;20032;-85
2022/09/30 01:52:05;;;;;;;36.78;20.75;;;7.00;99.90;;;5.50;100.00;100415.34;4919476;29;21268;-85
2022/09/30 01:55:28;;;;;;;36.55;20.58;;;7.00;99.90;;;5.48;100.00;100416.31;4906510;29;20067;-85
2022/09/30 01:58:25;;;;;;;42.10;20.15;;;7.00;99.90;;;5.47;100.00;100420.69;4917444;28;20061;-84
2022/09/30 02:00:55;;;;;;;34.63;20.35;;;6.90;99.90;;;5.43;100.00;100416.44;4931536;28;20023;-85
2022/09/30 02:03:36;;;;;;;34.45;20.70;;;6.90;99.90;;;5.41;100.00;100417.41;4918450;29;20032;-85
2022/09/30 02:06:09;;;;;;;36.53;20.92;;;6.90;99.90;;;5.41;100.00;100415.66;4928847;29;20055;-84
2022/09/30 02:08:55;;;;;;;40.88;21.13;;;6.90;99.90;;;5.41;100.00;100420.03;4928677;29;20061;-84
2022/09/30 02:11:44;;;;;;;35.05;21.35;;;6.80;99.90;;;5.41;100.00;100420.88;4926783;29;20042;-85
2022/09/30 02:14:39;;;;;;;36.60;21.52;;;6.80;99.90;;;5.39;100.00;100419.22;4911138;29;20036;-85
2022/09/30 02:17:28;;;;;;;36.38;21.55;;;6.80;99.90;;;5.30;100.00;100417.72;4920555;28;20029;-85
2022/09/30 02:20:21;;;;;;;;;;;;;;;;;;;;;
2022/09/30 02:23:14;;;;;;;34.05;20.83;;;6.70;99.90;;;5.28;100.00;100419.53;4924866;29;20095;-84
2022/09/30 02:26:04;;;;;;;37.53;20.33;;;6.70;99.90;;;5.24;100.00;100428.34;4930141;28;20075;-85
2022/09/30 02:28:40;;;;;;;42.47;21.38;;;6.70;99.90;;;5.21;100.00;100424.06;4911774;29;20389;-85
2022/09/30 02:31:11;;;;;;;35.05;20.83;;;6.70;99.90;;;5.23;100.00;100426.66;4948332;23;20483;-84
2022/09/30 02:33:58;;;;;;;34.92;20.75;;;6.70;99.90;;;5.21;100.00;100423.22;4961160;28;20411;-84
2022/09/30 02:36:40;;;;;;;35.25;20.23;;;6.60;99.90;;;5.20;100.00;100424.13;4947410;28;20030;-84
2022/09/30 02:39:30;;;;;;;38.53;21.15;;;6.60;99.90;;;5.16;100.00;100422.50;4962588;28;20030;-83
2022/09/30 02:42:12;;;;;;;39.35;20.90;;;6.60;99.90;;;5.16;100.00;100436.38;4956545;28;20035;-84
2022/09/30 02:44:38;;;;;;;34.90;20.08;;;6.60;99.90;;;5.12;100.00;100433.03;4977527;28;20034;-85
2022/09/30 02:47:11;;;;;;;36.05;21.55;;;6.60;99.90;;;5.16;100.00;100432.94;4967128;28;20038;-83
2022/09/30 02:49:59;;;;;;;36.53;21.05;;;6.60;99.90;;;5.13;100.00;100432.13;4979972;28;20031;-84
2022/09/30 02:53:08;;;;;;;33.20;20.77;;;6.60;99.90;;;5.12;100.00;100438.25;4980752;23;20046;-84
2022/09/30 02:56:06;;;;;;;34.45;20.27;;;6.60;99.90;;;5.11;100.00;100439.13;4976183;28;20484;-84
2022/09/30 02:58:41;;;;;;;38.95;21.05;;;6.60;99.90;;;5.11;100.00;100435.69;4976056;28;20034;-84
2022/09/30 03:01:12;;;;;;;42.88;22.38;;;6.60;99.90;;;5.11;100.00;100438.28;4968517;28;20649;-84
2022/09/30 03:03:59;;;;;;;38.03;22.48;;;6.60;99.90;;;5.05;100.00;100439.31;4956803;28;20057;-84
2022/09/30 03:06:26;;;;;;;34.28;21.17;;;6.60;99.90;;;5.05;100.00;100441.91;4943984;28;20035;-84
2022/09/30 03:08:52;;;;;;;49.85;21.67;;;6.60;99.90;;;5.06;100.00;100443.66;4964821;28;20439;-84
2022/09/30 03:11:30;;;;;;;39.78;22.15;;;6.50;99.90;;;5.10;100.00;100447.03;4973076;23;20053;-83
2022/09/30 03:14:10;;;;;;;38.25;21.88;;;6.60;99.90;;;5.09;100.00;100451.38;4958255;28;20029;-84
2022/09/30 03:17:19;;;;;;;42.22;22.48;;;6.60;99.90;;;5.11;100.00;100448.72;4975649;28;20018;-84
2022/09/30 03:20:22;;;;;;;40.33;22.17;;;6.60;99.90;;;5.06;100.00;100454.09;4978234;28;20042;-84
2022/09/30 03:23:25;;;;;;;42.38;23.63;;;6.50;99.90;;;5.01;100.00;100457.69;4975550;28;20066;-85
2022/09/30 03:26:29;;;;;;;39.83;22.23;;;6.50;99.90;;;4.96;100.00;100460.44;4958685;28;20031;-85
2022/09/30 03:29:23;;;;;;;39.13;22.05;;;6.50;99.90;;;4.96;100.00;100459.59;4966715;28;20503;-83
2022/09/30 03:32:15;;;;;;;42.30;22.77;;;6.40;99.90;;;4.94;100.00;100467.47;4989335;23;20114;-85
2022/09/30 03:35:24;;;;;;;42.00;22.35;;;6.40;99.90;;;4.96;100.00;100465.66;4975664;28;20026;-84
2022/09/30 03:38:40;;;;;;;37.55;21.42;;;6.40;99.90;;;4.98;100.00;100469.09;4990901;28;20031;-84
2022/09/30 03:41:26;;;;;;;33.28;18.35;;;6.40;99.90;;;4.95;100.00;100466.56;4975745;28;20034;-84
2022/09/30 03:44:11;;;;;;;;;;;6.40;99.90;;;4.83;100.00;100465.16;4974509;28;20035;-83
2022/09/30 03:46:46;;;;;;;43.92;21.42;;;6.20;99.90;;;4.74;100.00;100462.78;4939835;28;20358;-85
2022/09/30 03:49:27;;;;;;;40.10;22.35;;;6.20;99.90;;;4.66;100.00;100455.16;4961551;28;20098;-84
2022/09/30 03:52:03;;;;;;;42.33;22.40;;;6.20;99.90;;;4.68;100.00;100462.94;4954743;23;20440;-84
2022/09/30 03:54:30;;;;;;;39.45;22.15;;;5.50;99.90;;;4.69;100.00;100457.69;4959044;29;20173;-85
2022/09/30 03:56:57;;;;;;;41.80;22.25;;;6.20;99.90;;;4.77;100.00;100465.31;4957346;29;20035;-84
2022/09/30 03:59:27;;;;;;;37.45;22.02;;;6.20;99.90;;;4.82;100.00;100467.81;4958513;29;20055;-84
2022/09/30 04:01:55;;;;;;;42.75;23.85;;;6.30;99.90;;;4.85;100.00;100465.97;4939908;29;20054;-84
2022/09/30 04:04:22;;;;;;;44.78;22.98;;;6.30;99.90;;;4.90;100.00;100471.94;4959533;28;20034;-84
2022/09/30 04:06:48;;;;;;;42.55;23.50;;;6.40;99.90;;;4.92;100.00;100471.88;4963479;28;20038;-85
2022/09/30 04:09:21;;;;;;;41.25;22.20;;;6.40;99.90;;;4.94;100.00;100480.50;4957348;29;20031;-84
2022/09/30 04:11:47;;;;;;;44.05;23.10;;;6.30;99.90;;;4.96;100.00;100483.09;4964514;23;20047;-84
2022/09/30 04:14:13;;;;;;;39.67;23.10;;;6.40;99.90;;;4.93;100.00;100484.88;4941929;28;20505;-84
2022/09/30 04:16:38;;;;;;;40.45;22.35;;;6.40;99.90;;;4.90;100.00;100478.88;4967965;28;20050;-85
2022/09/30 04:19:04;;;;;;;43.60;22.88;;;6.30;99.90;;;4.90;100.00;100486.69;4962145;28;20028;-84
2022/09/30 04:21:40;;;;;;;39.30;23.23;;;6.30;99.90;;;4.90;100.00;100490.19;4955297;28;20201;-85
2022/09/30 04:24:06;;;;;;;38.73;22.40;;;6.30;99.90;;;4.89;100.00;100498.91;4952151;28;20031;-83
2022/09/30 04:26:32;;;;;;;44.42;23.70;;;6.40;99.90;;;4.92;100.00;100495.34;4956099;28;20527;-85
2022/09/30 04:29:06;;;;;;;42.45;23.23;;;6.40;99.90;;;4.96;100.00;100496.97;4951375;28;20110;-85
2022/09/30 04:31:32;;;;;;;42.95;22.95;;;6.40;99.90;;;4.98;100.00;100504.78;4961601;23;20054;-84
2022/09/30 04:33:58;;;;;;;39.60;23.17;;;6.40;99.90;;;5.00;100.00;100516.03;4978551;28;20070;-85
2022/09/30 04:36:23;;;;;;;50.67;23.80;;;6.40;99.90;;;5.03;100.00;100511.59;4985802;28;20393;-84
2022/09/30 04:38:56;;;;;;;42.85;23.90;;;6.50;99.90;;;5.08;100.00;100517.53;4983700;28;20173;-85
2022/09/30 04:41:22;;;;;;;43.88;22.77;;;6.50;99.90;;;5.12;100.00;100520.91;4980555;28;20038;-84
2022/09/30 04:43:48;;;;;;;44.90;23.25;;;6.50;99.90;;;5.18;100.00;100522.50;4976977;28;20045;-85
2022/09/30 04:46:16;;;;;;;40.88;23.85;;;6.60;99.90;;;5.23;100.00;100531.06;4972879;28;20031;-83
2022/09/30 04:48:48;;;;;;;40.90;23.05;;;6.60;99.90;;;5.23;100.00;100529.31;4997421;28;20034;-84
2022/09/30 04:51:17;;;;;;;40.30;23.58;;;6.70;99.90;;;5.32;100.00;100530.81;4979600;23;20035;-84
2022/09/30 04:53:44;;;;;;;45.95;24.67;;;6.70;99.90;;;5.39;100.00;100528.88;4994360;28;20072;-84
2022/09/30 04:56:15;;;;;;;39.92;22.48;;;6.80;99.90;;;5.42;100.00;100534.88;4993550;28;20110;-85
2022/09/30 04:58:43;;;;;;;39.80;22.33;;;6.80;99.90;;;5.44;100.00;100534.81;4977841;28;20035;-84
2022/09/30 05:01:13;;;;;;;38.55;22.48;;;6.90;99.90;;;5.49;100.00;100533.78;4976878;28;20041;-84
2022/09/30 05:03:47;;;;;;;39.55;22.90;;;6.90;99.90;;;5.55;100.00;100535.38;4980737;28;20046;-86
2022/09/30 05:06:14;;;;;;;41.65;22.52;;;7.00;99.90;;;5.59;100.00;100533.53;4962290;28;20026;-84
2022/09/30 05:08:42;;;;;;;38.47;22.55;;;7.00;99.90;;;5.62;100.00;100543.91;4977671;28;20058;-84
2022/09/30 05:11:17;;;;;;;44.17;22.88;;;7.00;99.90;;;5.65;100.00;100544.63;4982948;23;20046;-84
2022/09/30 05:13:44;;;;;;;39.63;23.33;;;7.00;99.90;;;5.67;100.00;100542.00;4959294;28;20043;-84
2022/09/30 05:16:20;;;;;;;51.72;30.77;;;7.10;99.90;;;5.77;100.00;100556.50;4964057;28;20037;-84
2022/09/30 05:18:46;;;;;;;;;;;7.10;99.90;;;5.78;100.00;100552.97;4959213;28;20043;-83
2022/09/30 05:21:22;;;;;;;53.57;33.93;;;7.10;99.90;;;5.75;100.00;100553.94;4972132;28;19914;-84
2022/09/30 05:23:48;;;;;;;40.92;25.63;;;7.20;99.90;;;5.80;100.00;100563.41;4946128;28;20031;-85
2022/09/30 05:26:14;;;;;;;46.33;22.58;;;7.20;99.90;;;5.82;100.00;100567.66;4941439;28;20039;-84
2022/09/30 05:28:41;;;;;;;35.58;21.00;;;7.10;99.90;;;5.83;100.00;100569.41;4946903;28;20452;-84
2022/09/30 05:31:12;;;;;;;34.63;21.55;;;;;;;5.88;100.00;100577.94;4959302;28;20035;-84
2022/09/30 05:33:38;;;;;;;44.42;21.90;;;7.20;99.90;;;5.90;100.00;100576.16;4942966;28;20649;-83
2022/09/30 05:36:07;;;;;;;37.53;21.85;;;7.30;99.90;;;5.99;100.00;100577.66;4962090;28;20031;-84
2022/09/30 05:38:41;;;;;;;38.75;21.77;;;7.30;99.90;;;6.11;100.00;100581.66;4956513;28;20089;-83
2022/09/30 05:41:13;;;;;;;35.22;20.73;;;7.40;99.90;;;6.21;100.00;100585.69;4943794;28;20040;-85
2022/09/30 05:43:44;;;;;;;35.85;21.10;;;7.50;99.90;;;6.27;100.00;100579.44;4941154;29;20050;-85
2022/09/30 05:46:09;;;;;;;42.63;20.98;;;7.50;99.90;;;6.32;100.00;100578.38;4942014;28;20897;-84
2022/09/30 05:48:36;;;;;;;33.05;20.20;;;7.50;99.90;;;6.35;100.00;100575.69;4929643;29;20033;-83
2022/09/30 05:51:02;;;;;;;34.55;20.23;;;7.50;99.90;;;6.33;100.00;100582.72;4950929;28;20023;-83
2022/09/30 05:53:30;;;;;;;52.75;22.15;;;7.60;99.90;;;6.38;100.00;100586.94;4929058;29;20027;-83
2022/09/30 05:55:59;;;;;;;55.47;29.58;;;7.60;99.90;;;6.42;100.00;100593.78;4945162;29;20039;-84
2022/09/30 05:58:26;;;;;;;40.75;21.58;;;7.70;99.90;;;7.80;100.00;100612.66;4920725;28;20027;-85
2022/09/30 06:00:52;;;;;;;52.00;29.27;;;7.90;99.90;;;7.73;100.00;100603.28;4958745;28;20031;-84
2022/09/30 06:03:18;;;;;;;30.25;21.55;;;8.20;99.90;;;8.20;100.00;100609.34;4946092;28;20038;-84
2022/09/30 06:05:44;;;;;;;36.58;20.63;;;8.50;99.90;;;9.91;98.30;100617.13;4944091;28;20031;-84
2022/09/30 06:08:15;;;;;;;27.40;18.30;;;9.00;99.90;;;11.02;87.88;100610.97;4927255;29;20035;-84
2022/09/30 06:10:43;;;;;;;27.15;16.58;;;9.40;99.90;;;9.71;86.02;100597.84;4941344;28;20035;-86
2022/09/30 06:13:10;;;;;;;26.33;15.70;;;9.50;99.90;;;8.97;89.26;100595.81;4941440;29;20043;-85
2022/09/30 06:15:37;;;;;;;21.02;14.85;;;9.40;99.90;;;8.93;91.83;100609.13;4931344;28;20435;-84
2022/09/30 06:18:09;;;;;;;24.05;15.10;;;9.70;99.90;;;12.18;84.55;100634.84;4968214;28;20019;-84
2022/09/30 06:20:36;;;;;;;22.88;13.90;;;10.30;99.90;;;14.06;74.73;100630.03;4927314;28;20034;-84
2022/09/30 06:23:03;;;;;;;15.43;12.07;;;11.30;99.90;;;16.02;66.77;100625.00;4952855;28;20399;-85
2022/09/30 06:28:01;;;;;;;15.73;10.82;;;13.30;99.90;;;18.26;59.11;100624.06;4978917;28;20046;-78
2022/09/30 06:30:27;;;;;;;12.48;9.27;;;14.20;99.90;;;18.88;56.67;100637.75;4976725;28;20058;-78
2022/09/30 06:32:56;;;;;;;14.63;10.93;;;14.90;99.90;;;19.53;54.85;100633.19;4962391;28;20117;-77
2022/09/30 06:35:24;;;;;;;11.68;9.15;;;15.60;99.90;;;20.42;53.04;100650.31;4962993;28;20053;-77
2022/09/30 06:37:53;;;;;;;10.32;8.38;;;16.20;99.90;;;21.10;51.34;100655.78;4928494;29;20063;-79
2022/09/30 06:40:20;;;;;;;11.35;8.82;;;16.90;99.90;;;21.46;50.39;100652.50;4962069;28;20727;-79
2022/09/30 06:42:47;;;;;;;13.40;8.73;;;17.60;99.90;;;22.29;48.99;100650.84;4959806;28;20038;-79
2022/09/30 06:45:13;;;;;;;10.93;8.05;;;18.30;99.90;;;22.94;47.25;100663.28;4945801;28;20139;-79
2022/09/30 06:47:39;;;;;;;14.10;8.35;;;19.00;99.90;;;23.68;46.41;100663.88;4961127;28;20034;-79
2022/09/30 06:50:07;;;;;;;8.70;7.53;;;19.60;99.90;;;24.25;45.12;100669.56;4962566;28;20035;-78
2022/09/30 06:52:33;;;;;;;20.38;8.35;;;20.30;99.90;;;25.03;43.89;100676.53;4947613;28;20027;-79
2022/09/30 06:54:58;;;;;;;9.30;7.28;;;21.00;99.90;;;25.63;43.19;100685.31;4946648;28;21291;-79
2022/09/30 06:57:26;;;;;;;10.07;6.78;;;21.70;99.90;;;26.14;41.91;100683.19;4962479;28;20110;-79
2022/09/30 06:59:53;;;;;;;8.35;6.78;;;22.40;99.90;;;26.09;41.52;100685.56;4962456;28;20114;-79
2022/09/30 07:02:21;;;;;;;8.65;6.65;;;22.80;99.90;;;26.59;40.93;100697.88;4961786;28;20058;-78
2022/09/30 07:04:47;;;;;;;7.43;6.50;;;23.20;99.30;;;26.62;40.73;100692.09;4962544;28;20027;-79
2022/09/30 07:07:13;;;;;;;8.85;7.35;;;23.60;98.40;;;27.09;39.91;100698.41;4961920;28;20046;-79
2022/09/30 07:09:39;;;;;;;9.45;6.40;;;24.00;96.60;;;27.11;39.58;100712.59;4961992;28;20031;-79
2022/09/30 07:12:06;;;;;;;8.48;6.85;;;24.30;96.60;;;27.31;39.03;100712.97;4960758;29;20039;-79
2022/09/30 07:14:32;;;;;;;9.18;6.68;;;24.70;96.80;;;27.56;38.63;100719.84;4947099;29;20063;-79
2022/09/30 07:16:58;;;;;;;9.07;6.30;;;25.10;95.90;;;27.80;38.85;100718.75;4966599;28;20055;-79
2022/09/30 07:19:26;;;;;;;11.50;6.85;;;25.50;95.30;;;27.68;38.68;100728.34;4961439;28;20043;-79
2022/09/30 07:21:52;;;;;;;7.85;5.97;;;25.80;94.00;;;27.64;38.54;100728.91;4941001;29;20535;-79
2022/09/30 07:24:18;;;;;;;13.23;5.90;;;26.00;93.80;;;27.91;38.17;100735.59;4954607;28;20150;-79
2022/09/30 07:26:44;;;;;;;8.77;6.30;;;26.30;94.20;;;28.04;38.42;100741.22;4964768;28;20039;-80
2022/09/30 07:29:12;;;;;;;9.45;5.88;;;26.50;93.20;;;27.84;38.34;100740.88;4966010;28;20015;-79
2022/09/30 07:31:43;;;;;;;9.90;6.00;;;26.80;93.70;;;27.99;38.24;100747.19;4966558;28;20031;-80
2022/09/30 07:34:09;;;;;;;9.05;6.65;;;27.00;92.30;;;27.81;38.09;100742.06;4964616;29;20027;-80
2022/09/30 07:36:38;;;;;;;8.75;6.20;;;27.10;91.80;;;27.69;38.20;100750.81;4962861;28;20070;-79
2022/09/30 07:39:11;;;;;;;10.90;5.45;;;27.20;91.20;;;27.46;38.26;100749.00;4960371;28;20055;-79
2022/09/30 07:41:38;;;;;;;7.55;5.80;;;27.20;92.10;;;27.37;38.58;100744.69;4964325;28;20015;-80
2022/09/30 07:44:09;;;;;;;6.68;5.75;;;27.30;91.80;;;27.29;38.22;100760.97;4963651;28;20519;-80
2022/09/30 07:46:38;;;;;;;9.57;5.22;;;27.20;90.40;;;26.95;39.05;100756.75;4966701;28;20074;-80
2022/09/30 07:49:07;;;;;;;6.78;5.82;;;27.10;90.30;;;26.70;39.12;100758.75;4964127;28;20027;-79
2022/09/30 07:51:42;;;;;;;8.95;6.00;;;26.90;90.00;;;26.14;40.02;100762.28;4947415;28;20026;-80
2022/09/30 07:54:13;;;;;;;9.00;5.80;;;26.80;88.10;;;26.34;39.94;100767.28;4964471;28;20090;-81
2022/09/30 07:56:40;;;;;;;12.68;6.03;;;26.90;91.00;;;26.75;40.02;100764.47;4965093;28;20086;-79
2022/09/30 07:59:10;;;;;;;7.15;5.75;;;27.10;87.50;;;26.49;39.64;100767.41;4965172;28;20031;-80
2022/09/30 08:01:36;;;;;;;8.15;5.93;;;27.40;90.70;;;26.66;40.18;100771.75;4964800;28;20051;-79
2022/09/30 08:04:06;;;;;;;9.00;5.68;;;27.60;89.60;;;26.91;39.54;100772.50;4953312;28;20031;-80
2022/09/30 08:06:39;;;;;;;8.20;5.78;;;27.80;90.80;;;27.21;39.09;100783.44;4964028;29;20019;-79
2022/09/30 08:09:06;;;;;;;8.15;5.75;;;27.90;90.20;;;26.79;39.13;100787.41;4965710;28;20100;-80
2022/09/30 08:11:34;;;;;;;11.52;6.40;;;28.00;89.80;;;27.08;39.30;100784.00;4964956;28;20031;-80
2022/09/30 08:14:00;;;;;;;9.88;5.47;;;28.00;87.40;;;26.40;40.17;100783.63;4964312;28;20475;-80
2022/09/30 08:16:29;;;;;;;9.30;6.03;;;27.90;89.80;;;26.51;40.21;100781.59;4964971;28;20031;-81
2022/09/30 08:18:57;;;;;;;8.48;5.55;;;27.90;89.40;;;26.55;40.01;100772.13;4964114;29;20046;-80
2022/09/30 08:21:23;;;;;;;9.48;6.00;;;27.90;88.30;;;26.30;40.33;100780.28;4964710;28;20035;-80
2022/09/30 08:23:49;;;;;;;8.45;6.32;;;27.70;89.60;;;26.00;40.68;100773.78;4963002;28;20066;-80
2022/09/30 08:26:16;;;;;;;11.40;5.88;;;27.60;90.10;;;26.21;40.69;100775.94;4962761;28;20464;-80
2022/09/30 08:28:45;;;;;;;9.88;6.03;;;27.20;87.70;;;25.39;41.08;100765.19;4967120;28;20141;-80
2022/09/30 08:31:18;;;;;;;7.40;5.00;;;27.20;90.40;;;25.62;41.45;100770.75;4949479;28;20036;-80
2022/09/30 08:33:44;;;;;;;9.52;5.65;;;27.10;90.20;;;25.68;40.93;100780.88;4944210;28;20027;-80
2022/09/30 08:36:20;;;;;;;11.55;4.90;;;26.80;89.30;;;25.28;41.16;100773.59;4963002;28;20027;-80
2022/09/30 08:38:46;;;;;;;11.50;4.93;;;26.60;89.90;;;25.20;41.75;100771.72;4967413;28;20031;-80
2022/09/30 08:41:34;;;;;;;11.85;4.97;;;26.40;90.80;;;24.99;42.04;100772.16;4959157;28;20528;-80
2022/09/30 08:44:03;;;;;;;6.55;5.03;;;26.20;90.50;;;24.80;42.43;100762.50;4959126;28;20031;-80
2022/09/30 08:46:51;;;;;;;7.38;4.55;;;25.90;91.10;;;24.58;42.33;100763.09;4964646;28;20035;-80
2022/09/30 08:50:06;;;;;;;8.75;4.53;;;25.20;90.80;;;23.50;44.15;100756.13;4964447;28;20055;-80
2022/09/30 08:52:39;;;;;;;7.07;4.43;;;24.80;92.00;;;23.59;44.65;100764.28;4959282;28;20043;-80
2022/09/30 08:55:09;;;;;;;5.85;4.72;;;24.50;91.80;;;23.28;45.07;100761.97;4968571;28;20562;-80
2022/09/30 08:57:42;;;;;;;12.02;4.55;;;24.20;93.10;;;23.24;45.85;100760.56;4966345;28;20031;-81
2022/09/30 09:00:15;;;;;;;11.00;4.60;;;24.00;93.00;;;23.06;45.80;100764.09;4965344;28;20035;-80
2022/09/30 09:02:58;;;;;;;8.32;4.55;;;23.70;93.40;;;22.71;45.36;100765.69;4946346;29;20085;-80
2022/09/30 09:06:00;;;;;;;5.47;4.60;;;23.30;92.60;;;21.86;47.13;100764.84;4948803;28;20111;-80
2022/09/30 09:08:36;;;;;;;9.88;5.18;;;22.80;94.40;;;21.69;47.74;100768.25;4963370;28;20063;-80
2022/09/30 09:11:17;;;;;;;8.52;4.35;;;22.30;94.80;;;21.47;48.66;100754.16;4963145;28;20490;-80
2022/09/30 09:14:07;;;;;;;4.70;4.20;;;22.00;95.70;;;21.12;50.01;100757.34;4963709;28;20066;-80
2022/09/30 09:17:13;;;;;;;7.13;4.88;;;21.50;95.40;;;20.59;50.86;100755.84;4962208;28;20056;-80
2022/09/30 09:20:01;;;;;;;6.28;4.60;;;20.90;96.80;;;19.55;52.70;100749.56;4908948;28;20576;-80
2022/09/30 09:22:40;;;;;;;7.43;4.93;;;20.30;97.30;;;19.05;54.21;100754.63;4958832;28;20047;-80
2022/09/30 09:25:21;;;;;;;8.13;4.90;;;19.80;98.70;;;18.61;56.28;100749.19;4947526;29;20035;-80
2022/09/30 09:27:58;;;;;;;10.80;5.57;;;19.50;98.80;;;18.29;55.69;100751.75;4968547;28;20050;-80
2022/09/30 09:30:43;;;;;;;9.93;5.40;;;19.30;99.80;;;18.15;57.71;100750.19;4960173;28;20404;-79
2022/09/30 09:33:25;;;;;;;9.85;5.78;;;19.10;99.90;;;18.08;58.44;100746.31;4960702;28;20043;-79
2022/09/30 09:36:31;;;;;;;9.13;6.05;;;19.00;99.90;;;17.98;58.14;100747.97;4960344;28;20047;-79
2022/09/30 09:39:55;;;;;;;10.85;6.35;;;18.90;99.90;;;17.77;58.20;100747.78;4961709;28;20071;-79
2022/09/30 09:42:39;;;;;;;8.57;6.32;;;18.80;99.90;;;17.89;59.19;100743.38;4939291;28;20042;-79
2022/09/30 09:45:33;;;;;;;9.85;5.93;;;18.80;99.90;;;17.82;59.84;100738.50;4962664;28;20091;-79
2022/09/30 09:48:00;;;;;;;11.75;6.43;;;18.70;99.90;;;17.83;59.92;100750.00;4960623;29;20031;-79
2022/09/30 09:51:02;;;;;;;11.80;6.38;;;18.80;99.90;;;17.87;60.11;100747.97;4963445;28;20043;-79
2022/09/30 09:53:49;;;;;;;11.05;6.20;;;18.80;99.90;;;17.94;60.26;100735.88;4959124;28;20052;-78
2022/09/30 09:57:13;;;;;;;13.15;7.18;;;18.70;99.90;;;17.48;59.39;100728.72;4955336;23;20166;-79
2022/09/30 10:04:26;;;;;;;9.70;6.47;;;18.70;99.90;;;17.33;59.19;100712.91;4957093;28;20038;-79
2022/09/30 10:07:33;;;;;;;12.32;6.32;;;18.50;99.90;;;17.33;60.41;100715.59;4908857;29;20041;-79
2022/09/30 10:10:43;;;;;;;;;;;18.50;99.90;;;17.43;61.16;100719.25;4910243;28;20043;-79
2022/09/30 10:14:31;;;;;;;7.72;5.65;;;18.50;99.90;;;17.60;59.37;100710.00;4954363;28;19977;-80
2022/09/30 10:18:15;;;;;;;9.98;5.60;;;18.50;99.90;;;17.45;60.18;100707.63;4897591;29;20051;-79
2022/09/30 10:21:43;;;;;;;9.38;5.65;;;18.40;99.90;;;17.43;60.38;100697.13;4882959;29;20088;-79
2022/09/30 10:24:34;;;;;;;9.90;5.50;;;18.40;99.90;;;17.48;60.38;100691.44;4896379;29;20136;-79
2022/09/30 10:27:29;;;;;;;7.35;5.35;;;18.50;99.90;;;17.68;60.39;100693.41;4895189;29;20040;-78
2022/09/30 10:29:55;;;;;;;7.05;4.85;;;18.60;99.90;;;17.83;59.59;100696.75;4911749;28;20067;-79
2022/09/30 10:32:25;;;;;;;7.50;5.32;;;18.70;99.90;;;17.87;58.58;100694.69;4954978;29;20083;-79
2022/09/30 10:35:10;;;;;;;9.48;5.22;;;18.70;99.90;;;17.86;59.25;100696.53;4942805;28;20523;-78
2022/09/30 10:37:48;;;;;;;8.25;4.78;;;18.80;99.90;;;18.04;58.39;100694.22;4958341;29;20059;-78
2022/09/30 10:40:26;;;;;;;10.93;5.05;;;18.90;99.90;;;18.19;57.58;100697.50;4944016;28;20035;-79
2022/09/30 10:42:55;;;;;;;7.90;5.30;;;19.00;99.90;;;18.20;57.84;100696.53;4961274;28;20035;-78
2022/09/30 10:45:40;;;;;;;8.05;5.00;;;19.00;99.90;;;18.06;58.05;100692.28;4961070;28;20042;-78
2022/09/30 10:48:19;;;;;;;8.73;5.53;;;19.00;99.90;;;18.13;58.17;100698.81;4941834;29;20031;-78
2022/09/30 10:50:57;;;;;;;11.10;5.78;;;19.10;99.90;;;18.18;57.16;100696.63;4939959;29;20051;-78
2022/09/30 10:53:31;;;;;;;8.70;5.38;;;19.10;99.90;;;18.34;57.71;100690.09;4926892;28;20112;-79
2022/09/30 10:55:58;;;;;;;7.00;4.95;;;19.20;99.90;;;18.43;57.47;100692.03;4942967;28;20036;-79
2022/09/30 10:58:53;;;;;;;7.00;5.65;;;19.20;99.90;;;18.45;57.24;100690.09;4939692;28;20114;-79
2022/09/30 11:01:34;;;;;;;8.27;6.03;;;19.30;99.90;;;18.56;55.96;100695.41;4942777;29;20075;-79
2022/09/30 11:04:23;;;;;;;8.85;5.68;;;19.40;99.70;;;18.59;55.97;100689.81;4944127;29;20027;-80
2022/09/30 11:06:58;;;;;;;13.95;6.25;;;19.30;98.80;;;18.28;55.75;100694.09;4958979;28;20126;-79
2022/09/30 11:09:50;;;;;;;12.88;5.40;;;19.30;99.10;;;18.42;55.71;100696.53;4942189;29;20444;-79